sensor_id;sensor_type;location;lat;lon;timestamp;P1;durP1;ratioP1;P2;durP2;ratioP2
35188;SDS011;21762;54.480;18.556;2023-04-01T00:00:10;10.85;;;4.63;;
35188;SDS011;21762;54.480;18.556;2023-04-01T00:02:41;10.57;;;5.50;;
35188;SDS011;21762;54.480;18.556;2023-04-01T00:05:10;15.68;;;5.70;;
35188;SDS011;21762;54.480;18.556;2023-04-01T00:07:38;18.88;;;5.28;;
35188;SDS011;21762;54.480;18.556;2023-04-01T00:10:08;11.52;;;5.63;;
35188;SDS011;21762;54.480;18.556;2023-04-01T00:12:37;11.48;;;5.75;;
35188;SDS011;21762;54.480;18.556;2023-04-01T00:15:07;13.43;;;6.45;;
35188;SDS011;21762;54.480;18.556;2023-04-01T00:17:37;10.40;;;4.68;;
35188;SDS011;21762;54.480;18.556;2023-04-01T00:20:07;16.02;;;6.05;;
35188;SDS011;21762;54.480;18.556;2023-04-01T00:22:36;13.23;;;5.05;;
35188;SDS011;21762;54.480;18.556;2023-04-01T00:25:05;13.05;;;6.47;;
35188;SDS011;21762;54.480;18.556;2023-04-01T00:27:33;15.65;;;7.35;;
35188;SDS011;21762;54.480;18.556;2023-04-01T00:30:02;16.42;;;7.25;;
35188;SDS011;21762;54.480;18.556;2023-04-01T00:32:30;15.48;;;6.43;;
35188;SDS011;21762;54.480;18.556;2023-04-01T00:34:59;15.68;;;6.95;;
35188;SDS011;21762;54.480;18.556;2023-04-01T00:37:28;12.48;;;6.40;;
35188;SDS011;21762;54.480;18.556;2023-04-01T00:39:57;17.17;;;7.72;;
35188;SDS011;21762;54.480;18.556;2023-04-01T00:42:25;13.25;;;7.80;;
35188;SDS011;21762;54.480;18.556;2023-04-01T00:44:55;14.15;;;7.22;;
35188;SDS011;21762;54.480;18.556;2023-04-01T00:47:24;14.75;;;7.47;;
35188;SDS011;21762;54.480;18.556;2023-04-01T00:49:53;11.07;;;6.68;;
35188;SDS011;21762;54.480;18.556;2023-04-01T00:52:23;12.45;;;6.88;;
35188;SDS011;21762;54.480;18.556;2023-04-01T00:54:54;13.38;;;6.63;;
35188;SDS011;21762;54.480;18.556;2023-04-01T00:57:25;13.07;;;6.82;;
35188;SDS011;21762;54.480;18.556;2023-04-01T00:59:56;21.42;;;5.90;;
35188;SDS011;21762;54.480;18.556;2023-04-01T01:02:26;12.80;;;6.55;;
35188;SDS011;21762;54.480;18.556;2023-04-01T01:04:54;12.82;;;6.32;;
35188;SDS011;21762;54.480;18.556;2023-04-01T01:07:24;9.95;;;4.95;;
35188;SDS011;21762;54.480;18.556;2023-04-01T01:10:00;8.15;;;5.45;;
35188;SDS011;21762;54.480;18.556;2023-04-01T01:12:31;11.38;;;5.30;;
35188;SDS011;21762;54.480;18.556;2023-04-01T01:15:06;11.13;;;6.47;;
35188;SDS011;21762;54.480;18.556;2023-04-01T01:17:42;10.45;;;5.18;;
35188;SDS011;21762;54.480;18.556;2023-04-01T01:20:39;8.13;;;4.65;;
35188;SDS011;21762;54.480;18.556;2023-04-01T01:23:32;8.75;;;5.43;;
35188;SDS011;21762;54.480;18.556;2023-04-01T01:26:20;7.78;;;4.57;;
35188;SDS011;21762;54.480;18.556;2023-04-01T01:29:01;9.93;;;4.38;;
35188;SDS011;21762;54.480;18.556;2023-04-01T01:31:39;8.50;;;3.80;;
35188;SDS011;21762;54.480;18.556;2023-04-01T01:34:15;5.43;;;3.40;;
35188;SDS011;21762;54.480;18.556;2023-04-01T01:36:50;5.97;;;3.67;;
35188;SDS011;21762;54.480;18.556;2023-04-01T01:39:24;8.45;;;4.18;;
35188;SDS011;21762;54.480;18.556;2023-04-01T01:44:24;6.35;;;3.67;;
35188;SDS011;21762;54.480;18.556;2023-04-01T01:46:54;7.00;;;4.07;;
35188;SDS011;21762;54.480;18.556;2023-04-01T01:49:23;7.28;;;3.47;;
35188;SDS011;21762;54.480;18.556;2023-04-01T01:51:54;5.68;;;3.75;;
35188;SDS011;21762;54.480;18.556;2023-04-01T01:54:23;6.70;;;3.90;;
35188;SDS011;21762;54.480;18.556;2023-04-01T01:56:51;12.10;;;4.35;;
35188;SDS011;21762;54.480;18.556;2023-04-01T01:59:25;7.65;;;3.65;;
35188;SDS011;21762;54.480;18.556;2023-04-01T02:01:54;7.35;;;3.72;;
35188;SDS011;21762;54.480;18.556;2023-04-01T02:04:24;7.72;;;4.45;;
35188;SDS011;21762;54.480;18.556;2023-04-01T02:06:56;9.70;;;3.85;;
35188;SDS011;21762;54.480;18.556;2023-04-01T02:09:28;5.65;;;4.18;;
35188;SDS011;21762;54.480;18.556;2023-04-01T02:11:57;5.28;;;3.90;;
35188;SDS011;21762;54.480;18.556;2023-04-01T02:14:29;6.95;;;3.80;;
35188;SDS011;21762;54.480;18.556;2023-04-01T02:17:02;7.13;;;4.70;;
35188;SDS011;21762;54.480;18.556;2023-04-01T02:19:33;5.95;;;3.92;;
35188;SDS011;21762;54.480;18.556;2023-04-01T02:22:06;6.00;;;4.07;;
35188;SDS011;21762;54.480;18.556;2023-04-01T02:24:37;8.52;;;4.32;;
35188;SDS011;21762;54.480;18.556;2023-04-01T02:27:06;8.07;;;4.50;;
35188;SDS011;21762;54.480;18.556;2023-04-01T02:29:34;6.00;;;4.47;;
35188;SDS011;21762;54.480;18.556;2023-04-01T02:32:06;7.78;;;3.90;;
35188;SDS011;21762;54.480;18.556;2023-04-01T02:34:36;6.90;;;3.92;;
35188;SDS011;21762;54.480;18.556;2023-04-01T02:37:06;7.15;;;4.15;;
35188;SDS011;21762;54.480;18.556;2023-04-01T02:39:34;5.68;;;4.00;;
35188;SDS011;21762;54.480;18.556;2023-04-01T02:42:02;7.40;;;4.43;;
35188;SDS011;21762;54.480;18.556;2023-04-01T02:44:31;5.72;;;4.07;;
35188;SDS011;21762;54.480;18.556;2023-04-01T02:47:00;7.03;;;3.80;;
35188;SDS011;21762;54.480;18.556;2023-04-01T02:49:28;5.95;;;3.75;;
35188;SDS011;21762;54.480;18.556;2023-04-01T02:51:57;7.07;;;3.80;;
35188;SDS011;21762;54.480;18.556;2023-04-01T02:54:26;6.53;;;3.53;;
35188;SDS011;21762;54.480;18.556;2023-04-01T02:56:55;6.18;;;3.70;;
35188;SDS011;21762;54.480;18.556;2023-04-01T02:59:23;6.25;;;4.32;;
35188;SDS011;21762;54.480;18.556;2023-04-01T03:01:51;6.60;;;3.97;;
35188;SDS011;21762;54.480;18.556;2023-04-01T03:04:20;9.00;;;4.55;;
35188;SDS011;21762;54.480;18.556;2023-04-01T03:06:48;7.38;;;3.65;;
35188;SDS011;21762;54.480;18.556;2023-04-01T03:09:18;5.20;;;3.47;;
35188;SDS011;21762;54.480;18.556;2023-04-01T03:11:47;7.03;;;3.35;;
35188;SDS011;21762;54.480;18.556;2023-04-01T03:14:16;5.32;;;3.40;;
35188;SDS011;21762;54.480;18.556;2023-04-01T03:16:44;6.68;;;4.18;;
35188;SDS011;21762;54.480;18.556;2023-04-01T03:19:12;7.07;;;3.67;;
35188;SDS011;21762;54.480;18.556;2023-04-01T03:21:41;8.82;;;4.57;;
35188;SDS011;21762;54.480;18.556;2023-04-01T03:24:09;8.93;;;4.97;;
35188;SDS011;21762;54.480;18.556;2023-04-01T03:26:38;11.70;;;5.15;;
35188;SDS011;21762;54.480;18.556;2023-04-01T03:29:07;12.27;;;5.68;;
35188;SDS011;21762;54.480;18.556;2023-04-01T03:31:37;12.10;;;6.15;;
35188;SDS011;21762;54.480;18.556;2023-04-01T03:34:05;12.50;;;6.50;;
35188;SDS011;21762;54.480;18.556;2023-04-01T03:36:34;18.83;;;7.05;;
35188;SDS011;21762;54.480;18.556;2023-04-01T03:39:02;15.68;;;7.43;;
35188;SDS011;21762;54.480;18.556;2023-04-01T03:41:39;19.13;;;5.97;;
35188;SDS011;21762;54.480;18.556;2023-04-01T03:44:09;13.77;;;7.60;;
35188;SDS011;21762;54.480;18.556;2023-04-01T03:46:37;13.23;;;6.78;;
35188;SDS011;21762;54.480;18.556;2023-04-01T03:49:06;13.25;;;6.75;;
35188;SDS011;21762;54.480;18.556;2023-04-01T03:51:38;15.07;;;7.90;;
35188;SDS011;21762;54.480;18.556;2023-04-01T03:54:07;13.88;;;6.85;;
35188;SDS011;21762;54.480;18.556;2023-04-01T03:56:36;13.45;;;7.20;;
35188;SDS011;21762;54.480;18.556;2023-04-01T03:59:04;13.82;;;7.88;;
35188;SDS011;21762;54.480;18.556;2023-04-01T04:01:36;18.85;;;7.57;;
35188;SDS011;21762;54.480;18.556;2023-04-01T04:04:04;16.27;;;6.85;;
35188;SDS011;21762;54.480;18.556;2023-04-01T04:06:33;18.75;;;6.43;;
35188;SDS011;21762;54.480;18.556;2023-04-01T04:09:01;16.95;;;6.63;;
35188;SDS011;21762;54.480;18.556;2023-04-01T04:11:30;18.80;;;6.18;;
35188;SDS011;21762;54.480;18.556;2023-04-01T04:13:59;17.27;;;6.30;;
35188;SDS011;21762;54.480;18.556;2023-04-01T04:16:28;17.58;;;7.32;;
35188;SDS011;21762;54.480;18.556;2023-04-01T04:19:01;16.70;;;6.32;;
35188;SDS011;21762;54.480;18.556;2023-04-01T04:21:30;18.13;;;6.38;;
35188;SDS011;21762;54.480;18.556;2023-04-01T04:23:59;15.38;;;6.00;;
35188;SDS011;21762;54.480;18.556;2023-04-01T04:26:35;17.17;;;6.75;;
35188;SDS011;21762;54.480;18.556;2023-04-01T04:29:04;16.70;;;6.35;;
35188;SDS011;21762;54.480;18.556;2023-04-01T04:31:32;14.98;;;5.88;;
35188;SDS011;21762;54.480;18.556;2023-04-01T04:34:02;15.25;;;6.00;;
35188;SDS011;21762;54.480;18.556;2023-04-01T04:36:34;14.65;;;6.40;;
35188;SDS011;21762;54.480;18.556;2023-04-01T04:39:03;14.75;;;6.40;;
35188;SDS011;21762;54.480;18.556;2023-04-01T04:41:33;17.85;;;5.65;;
35188;SDS011;21762;54.480;18.556;2023-04-01T04:44:03;13.70;;;5.78;;
35188;SDS011;21762;54.480;18.556;2023-04-01T04:46:31;13.20;;;5.57;;
35188;SDS011;21762;54.480;18.556;2023-04-01T04:49:11;12.60;;;4.97;;
35188;SDS011;21762;54.480;18.556;2023-04-01T04:51:40;15.18;;;4.78;;
35188;SDS011;21762;54.480;18.556;2023-04-01T04:54:10;13.32;;;5.38;;
35188;SDS011;21762;54.480;18.556;2023-04-01T04:56:59;13.70;;;5.20;;
35188;SDS011;21762;54.480;18.556;2023-04-01T04:59:31;22.83;;;5.45;;
35188;SDS011;21762;54.480;18.556;2023-04-01T05:02:07;13.13;;;5.05;;
35188;SDS011;21762;54.480;18.556;2023-04-01T05:04:37;19.00;;;5.40;;
35188;SDS011;21762;54.480;18.556;2023-04-01T05:07:08;18.95;;;5.15;;
35188;SDS011;21762;54.480;18.556;2023-04-01T05:09:37;13.32;;;4.75;;
35188;SDS011;21762;54.480;18.556;2023-04-01T05:12:06;15.73;;;5.13;;
35188;SDS011;21762;54.480;18.556;2023-04-01T05:14:52;12.00;;;5.20;;
35188;SDS011;21762;54.480;18.556;2023-04-01T05:17:22;9.05;;;3.75;;
35188;SDS011;21762;54.480;18.556;2023-04-01T05:19:52;16.35;;;4.78;;
35188;SDS011;21762;54.480;18.556;2023-04-01T05:22:21;13.40;;;4.82;;
35188;SDS011;21762;54.480;18.556;2023-04-01T05:24:50;12.63;;;3.80;;
35188;SDS011;21762;54.480;18.556;2023-04-01T05:27:18;16.58;;;5.07;;
35188;SDS011;21762;54.480;18.556;2023-04-01T05:29:47;7.53;;;2.25;;
35188;SDS011;21762;54.480;18.556;2023-04-01T05:32:39;13.32;;;4.18;;
35188;SDS011;21762;54.480;18.556;2023-04-01T05:35:09;13.68;;;4.85;;
35188;SDS011;21762;54.480;18.556;2023-04-01T05:37:38;15.23;;;4.80;;
35188;SDS011;21762;54.480;18.556;2023-04-01T05:40:07;8.95;;;3.60;;
35188;SDS011;21762;54.480;18.556;2023-04-01T05:42:36;15.40;;;4.53;;
35188;SDS011;21762;54.480;18.556;2023-04-01T05:45:05;11.63;;;4.15;;
35188;SDS011;21762;54.480;18.556;2023-04-01T05:48:01;14.93;;;4.43;;
35188;SDS011;21762;54.480;18.556;2023-04-01T05:50:37;7.60;;;3.65;;
35188;SDS011;21762;54.480;18.556;2023-04-01T05:53:09;10.18;;;3.15;;
35188;SDS011;21762;54.480;18.556;2023-04-01T05:55:41;9.90;;;3.22;;
35188;SDS011;21762;54.480;18.556;2023-04-01T05:58:11;16.00;;;3.40;;
35188;SDS011;21762;54.480;18.556;2023-04-01T06:00:42;8.98;;;3.75;;
35188;SDS011;21762;54.480;18.556;2023-04-01T06:03:13;5.97;;;2.75;;
35188;SDS011;21762;54.480;18.556;2023-04-01T06:05:43;5.72;;;2.67;;
35188;SDS011;21762;54.480;18.556;2023-04-01T06:08:13;3.03;;;1.95;;
35188;SDS011;21762;54.480;18.556;2023-04-01T06:10:53;5.15;;;2.30;;
35188;SDS011;21762;54.480;18.556;2023-04-01T06:13:31;4.07;;;1.67;;
35188;SDS011;21762;54.480;18.556;2023-04-01T06:16:07;3.47;;;1.70;;
35188;SDS011;21762;54.480;18.556;2023-04-01T06:18:45;3.70;;;1.95;;
35188;SDS011;21762;54.480;18.556;2023-04-01T06:21:29;1.73;;;1.20;;
35188;SDS011;21762;54.480;18.556;2023-04-01T06:24:08;2.85;;;1.70;;
35188;SDS011;21762;54.480;18.556;2023-04-01T06:26:46;3.38;;;1.80;;
35188;SDS011;21762;54.480;18.556;2023-04-01T06:29:29;2.65;;;1.95;;
35188;SDS011;21762;54.480;18.556;2023-04-01T06:32:15;5.32;;;2.25;;
35188;SDS011;21762;54.480;18.556;2023-04-01T06:34:56;3.58;;;1.58;;
35188;SDS011;21762;54.480;18.556;2023-04-01T06:37:50;4.25;;;1.75;;
35188;SDS011;21762;54.480;18.556;2023-04-01T06:40:32;3.42;;;2.15;;
35188;SDS011;21762;54.480;18.556;2023-04-01T06:43:22;6.32;;;2.42;;
35188;SDS011;21762;54.480;18.556;2023-04-01T06:46:15;6.43;;;2.28;;
35188;SDS011;21762;54.480;18.556;2023-04-01T06:49:08;4.28;;;2.00;;
35188;SDS011;21762;54.480;18.556;2023-04-01T06:52:10;5.50;;;2.35;;
35188;SDS011;21762;54.480;18.556;2023-04-01T06:55:07;6.10;;;2.35;;
35188;SDS011;21762;54.480;18.556;2023-04-01T06:58:09;5.80;;;2.67;;
35188;SDS011;21762;54.480;18.556;2023-04-01T07:00:39;3.55;;;2.25;;
35188;SDS011;21762;54.480;18.556;2023-04-01T07:03:15;5.13;;;2.10;;
35188;SDS011;21762;54.480;18.556;2023-04-01T07:05:54;6.43;;;3.15;;
35188;SDS011;21762;54.480;18.556;2023-04-01T07:08:25;3.50;;;1.58;;
35188;SDS011;21762;54.480;18.556;2023-04-01T07:10:58;3.28;;;2.17;;
35188;SDS011;21762;54.480;18.556;2023-04-01T07:13:49;4.68;;;2.00;;
35188;SDS011;21762;54.480;18.556;2023-04-01T07:16:20;1.38;;;0.98;;
35188;SDS011;21762;54.480;18.556;2023-04-01T07:18:52;3.70;;;2.08;;
35188;SDS011;21762;54.480;18.556;2023-04-01T07:21:29;7.05;;;2.00;;
35188;SDS011;21762;54.480;18.556;2023-04-01T07:24:12;5.45;;;2.50;;
35188;SDS011;21762;54.480;18.556;2023-04-01T07:26:54;3.70;;;1.98;;
35188;SDS011;21762;54.480;18.556;2023-04-01T07:29:26;4.20;;;1.98;;
35188;SDS011;21762;54.480;18.556;2023-04-01T07:32:09;2.97;;;2.15;;
35188;SDS011;21762;54.480;18.556;2023-04-01T07:34:49;1.83;;;1.48;;
35188;SDS011;21762;54.480;18.556;2023-04-01T07:37:24;2.78;;;1.50;;
35188;SDS011;21762;54.480;18.556;2023-04-01T07:39:56;4.72;;;2.25;;
35188;SDS011;21762;54.480;18.556;2023-04-01T07:42:39;4.45;;;2.35;;
35188;SDS011;21762;54.480;18.556;2023-04-01T07:45:15;3.88;;;0.98;;
35188;SDS011;21762;54.480;18.556;2023-04-01T07:47:51;3.70;;;1.40;;
35188;SDS011;21762;54.480;18.556;2023-04-01T07:50:26;7.60;;;2.08;;
35188;SDS011;21762;54.480;18.556;2023-04-01T07:53:00;3.53;;;1.58;;
35188;SDS011;21762;54.480;18.556;2023-04-01T07:55:34;3.72;;;1.50;;
35188;SDS011;21762;54.480;18.556;2023-04-01T07:58:10;4.45;;;1.40;;
35188;SDS011;21762;54.480;18.556;2023-04-01T08:00:45;3.33;;;2.22;;
35188;SDS011;21762;54.480;18.556;2023-04-01T08:03:33;6.93;;;2.03;;
35188;SDS011;21762;54.480;18.556;2023-04-01T08:08:40;4.07;;;2.00;;
35188;SDS011;21762;54.480;18.556;2023-04-01T08:11:39;1.95;;;1.25;;
35188;SDS011;21762;54.480;18.556;2023-04-01T08:14:33;7.18;;;2.47;;
35188;SDS011;21762;54.480;18.556;2023-04-01T08:17:26;2.60;;;1.52;;
35188;SDS011;21762;54.480;18.556;2023-04-01T08:20:01;4.00;;;1.50;;
35188;SDS011;21762;54.480;18.556;2023-04-01T08:22:43;4.50;;;2.22;;
35188;SDS011;21762;54.480;18.556;2023-04-01T08:25:27;2.65;;;1.50;;
35188;SDS011;21762;54.480;18.556;2023-04-01T08:27:57;5.57;;;1.83;;
35188;SDS011;21762;54.480;18.556;2023-04-01T08:30:33;6.68;;;2.03;;
35188;SDS011;21762;54.480;18.556;2023-04-01T08:33:05;5.47;;;2.05;;
35188;SDS011;21762;54.480;18.556;2023-04-01T08:35:37;5.90;;;1.88;;
35188;SDS011;21762;54.480;18.556;2023-04-01T08:38:10;2.97;;;2.05;;
35188;SDS011;21762;54.480;18.556;2023-04-01T08:41:00;3.40;;;2.20;;
35188;SDS011;21762;54.480;18.556;2023-04-01T08:44:12;4.28;;;1.50;;
35188;SDS011;21762;54.480;18.556;2023-04-01T08:47:12;3.42;;;1.63;;
35188;SDS011;21762;54.480;18.556;2023-04-01T08:53:17;3.13;;;1.30;;
35188;SDS011;21762;54.480;18.556;2023-04-01T08:55:51;2.45;;;0.90;;
35188;SDS011;21762;54.480;18.556;2023-04-01T08:58:35;2.80;;;1.25;;
35188;SDS011;21762;54.480;18.556;2023-04-01T09:07:59;5.22;;;1.60;;
35188;SDS011;21762;54.480;18.556;2023-04-01T09:14:12;6.97;;;1.52;;
35188;SDS011;21762;54.480;18.556;2023-04-01T09:20:02;5.65;;;2.13;;
35188;SDS011;21762;54.480;18.556;2023-04-01T09:22:47;5.05;;;2.22;;
35188;SDS011;21762;54.480;18.556;2023-04-01T09:25:44;12.00;;;2.50;;
35188;SDS011;21762;54.480;18.556;2023-04-01T09:28:17;2.70;;;1.65;;
35188;SDS011;21762;54.480;18.556;2023-04-01T09:37:08;3.70;;;1.55;;
35188;SDS011;21762;54.480;18.556;2023-04-01T09:39:54;4.68;;;1.15;;
35188;SDS011;21762;54.480;18.556;2023-04-01T09:42:45;4.85;;;2.10;;
35188;SDS011;21762;54.480;18.556;2023-04-01T09:45:37;5.60;;;2.25;;
35188;SDS011;21762;54.480;18.556;2023-04-01T09:51:22;2.78;;;1.05;;
35188;SDS011;21762;54.480;18.556;2023-04-01T09:53:58;3.17;;;1.05;;
35188;SDS011;21762;54.480;18.556;2023-04-01T09:56:50;2.42;;;1.23;;
35188;SDS011;21762;54.480;18.556;2023-04-01T10:06:20;2.40;;;1.40;;
35188;SDS011;21762;54.480;18.556;2023-04-01T10:12:21;0.60;;;0.50;;
35188;SDS011;21762;54.480;18.556;2023-04-01T10:18:19;2.13;;;1.33;;
35188;SDS011;21762;54.480;18.556;2023-04-01T10:21:25;1.92;;;1.20;;
35188;SDS011;21762;54.480;18.556;2023-04-01T10:24:19;5.80;;;1.70;;
35188;SDS011;21762;54.480;18.556;2023-04-01T10:27:14;2.00;;;0.95;;
35188;SDS011;21762;54.480;18.556;2023-04-01T10:30:06;2.88;;;1.15;;
35188;SDS011;21762;54.480;18.556;2023-04-01T10:33:18;2.58;;;1.30;;
35188;SDS011;21762;54.480;18.556;2023-04-01T10:39:13;1.88;;;0.85;;
35188;SDS011;21762;54.480;18.556;2023-04-01T10:45:21;4.65;;;1.42;;
35188;SDS011;21762;54.480;18.556;2023-04-01T10:48:12;4.22;;;1.42;;
35188;SDS011;21762;54.480;18.556;2023-04-01T10:53:58;3.80;;;1.45;;
35188;SDS011;21762;54.480;18.556;2023-04-01T10:57:09;2.20;;;0.95;;
35188;SDS011;21762;54.480;18.556;2023-04-01T11:00:18;2.92;;;1.20;;
35188;SDS011;21762;54.480;18.556;2023-04-01T11:04:01;3.08;;;1.40;;
35188;SDS011;21762;54.480;18.556;2023-04-01T11:13:53;6.22;;;1.13;;
35188;SDS011;21762;54.480;18.556;2023-04-01T11:19:46;2.30;;;1.05;;
35188;SDS011;21762;54.480;18.556;2023-04-01T11:22:40;5.53;;;1.45;;
35188;SDS011;21762;54.480;18.556;2023-04-01T11:25:25;2.85;;;1.00;;
35188;SDS011;21762;54.480;18.556;2023-04-01T11:28:26;5.55;;;1.02;;
35188;SDS011;21762;54.480;18.556;2023-04-01T11:31:17;1.40;;;0.68;;
35188;SDS011;21762;54.480;18.556;2023-04-01T11:33:53;3.83;;;1.52;;
35188;SDS011;21762;54.480;18.556;2023-04-01T11:36:28;5.90;;;1.60;;
35188;SDS011;21762;54.480;18.556;2023-04-01T11:39:10;2.95;;;1.30;;
35188;SDS011;21762;54.480;18.556;2023-04-01T11:42:10;1.83;;;0.82;;
35188;SDS011;21762;54.480;18.556;2023-04-01T11:45:23;1.48;;;0.50;;
35188;SDS011;21762;54.480;18.556;2023-04-01T11:53:49;1.77;;;1.20;;
35188;SDS011;21762;54.480;18.556;2023-04-01T11:56:29;2.00;;;0.70;;
35188;SDS011;21762;54.480;18.556;2023-04-01T11:59:22;1.05;;;0.95;;
35188;SDS011;21762;54.480;18.556;2023-04-01T12:01:59;2.83;;;1.40;;
35188;SDS011;21762;54.480;18.556;2023-04-01T12:07:44;2.92;;;1.25;;
35188;SDS011;21762;54.480;18.556;2023-04-01T12:10:39;3.72;;;1.00;;
35188;SDS011;21762;54.480;18.556;2023-04-01T12:13:14;2.17;;;1.38;;
35188;SDS011;21762;54.480;18.556;2023-04-01T12:15:54;3.30;;;1.00;;
35188;SDS011;21762;54.480;18.556;2023-04-01T12:18:31;3.88;;;1.60;;
35188;SDS011;21762;54.480;18.556;2023-04-01T12:21:05;3.10;;;1.55;;
35188;SDS011;21762;54.480;18.556;2023-04-01T12:23:48;2.47;;;1.10;;
35188;SDS011;21762;54.480;18.556;2023-04-01T12:26:31;2.92;;;1.13;;
35188;SDS011;21762;54.480;18.556;2023-04-01T12:31:56;2.60;;;1.20;;
35188;SDS011;21762;54.480;18.556;2023-04-01T12:34:48;1.52;;;1.42;;
35188;SDS011;21762;54.480;18.556;2023-04-01T12:37:29;1.52;;;0.95;;
35188;SDS011;21762;54.480;18.556;2023-04-01T12:40:17;4.38;;;1.10;;
35188;SDS011;21762;54.480;18.556;2023-04-01T12:43:05;2.70;;;1.30;;
35188;SDS011;21762;54.480;18.556;2023-04-01T12:45:44;1.65;;;0.85;;
35188;SDS011;21762;54.480;18.556;2023-04-01T12:51:33;4.25;;;1.58;;
35188;SDS011;21762;54.480;18.556;2023-04-01T12:54:15;3.35;;;1.45;;
35188;SDS011;21762;54.480;18.556;2023-04-01T12:57:08;3.67;;;0.80;;
35188;SDS011;21762;54.480;18.556;2023-04-01T12:59:48;2.30;;;1.00;;
35188;SDS011;21762;54.480;18.556;2023-04-01T13:02:30;3.22;;;1.10;;
35188;SDS011;21762;54.480;18.556;2023-04-01T13:05:20;5.53;;;0.80;;
35188;SDS011;21762;54.480;18.556;2023-04-01T13:08:07;2.55;;;1.00;;
35188;SDS011;21762;54.480;18.556;2023-04-01T13:10:51;2.13;;;0.98;;
35188;SDS011;21762;54.480;18.556;2023-04-01T13:13:34;1.17;;;0.73;;
35188;SDS011;21762;54.480;18.556;2023-04-01T13:16:14;5.05;;;1.65;;
35188;SDS011;21762;54.480;18.556;2023-04-01T13:18:50;4.07;;;0.95;;
35188;SDS011;21762;54.480;18.556;2023-04-01T13:21:25;4.25;;;1.10;;
35188;SDS011;21762;54.480;18.556;2023-04-01T13:24:02;3.05;;;1.42;;
35188;SDS011;21762;54.480;18.556;2023-04-01T13:26:34;2.67;;;0.90;;
35188;SDS011;21762;54.480;18.556;2023-04-01T13:29:06;1.20;;;1.00;;
35188;SDS011;21762;54.480;18.556;2023-04-01T13:31:44;4.60;;;0.88;;
35188;SDS011;21762;54.480;18.556;2023-04-01T13:34:26;2.95;;;1.40;;
35188;SDS011;21762;54.480;18.556;2023-04-01T13:37:04;2.75;;;1.38;;
35188;SDS011;21762;54.480;18.556;2023-04-01T13:39:49;4.60;;;1.83;;
35188;SDS011;21762;54.480;18.556;2023-04-01T13:42:31;7.05;;;1.40;;
35188;SDS011;21762;54.480;18.556;2023-04-01T13:45:08;4.68;;;1.75;;
35188;SDS011;21762;54.480;18.556;2023-04-01T13:47:53;2.95;;;1.75;;
35188;SDS011;21762;54.480;18.556;2023-04-01T13:50:56;2.38;;;1.40;;
35188;SDS011;21762;54.480;18.556;2023-04-01T13:53:40;4.68;;;2.05;;
35188;SDS011;21762;54.480;18.556;2023-04-01T13:56:16;3.17;;;1.40;;
35188;SDS011;21762;54.480;18.556;2023-04-01T14:02:02;3.90;;;1.88;;
35188;SDS011;21762;54.480;18.556;2023-04-01T14:04:46;2.20;;;1.60;;
35188;SDS011;21762;54.480;18.556;2023-04-01T14:07:37;5.25;;;1.90;;
35188;SDS011;21762;54.480;18.556;2023-04-01T14:10:18;5.78;;;1.58;;
35188;SDS011;21762;54.480;18.556;2023-04-01T14:12:50;3.80;;;2.17;;
35188;SDS011;21762;54.480;18.556;2023-04-01T14:21:23;7.38;;;1.58;;
35188;SDS011;21762;54.480;18.556;2023-04-01T14:27:41;4.28;;;1.80;;
35188;SDS011;21762;54.480;18.556;2023-04-01T14:30:20;14.77;;;2.83;;
35188;SDS011;21762;54.480;18.556;2023-04-01T14:32:57;10.07;;;2.90;;
35188;SDS011;21762;54.480;18.556;2023-04-01T14:35:35;7.38;;;2.50;;
35188;SDS011;21762;54.480;18.556;2023-04-01T14:38:18;5.35;;;2.25;;
35188;SDS011;21762;54.480;18.556;2023-04-01T14:40:56;5.07;;;2.40;;
35188;SDS011;21762;54.480;18.556;2023-04-01T14:43:36;6.63;;;2.33;;
35188;SDS011;21762;54.480;18.556;2023-04-01T14:46:23;6.88;;;2.85;;
35188;SDS011;21762;54.480;18.556;2023-04-01T14:49:00;6.50;;;2.60;;
35188;SDS011;21762;54.480;18.556;2023-04-01T14:51:31;7.10;;;2.75;;
35188;SDS011;21762;54.480;18.556;2023-04-01T14:54:04;10.52;;;3.50;;
35188;SDS011;21762;54.480;18.556;2023-04-01T14:56:39;9.38;;;3.40;;
35188;SDS011;21762;54.480;18.556;2023-04-01T14:59:10;6.28;;;3.53;;
35188;SDS011;21762;54.480;18.556;2023-04-01T15:01:46;6.70;;;2.00;;
35188;SDS011;21762;54.480;18.556;2023-04-01T15:04:21;5.43;;;2.53;;
35188;SDS011;21762;54.480;18.556;2023-04-01T15:07:02;5.72;;;2.92;;
35188;SDS011;21762;54.480;18.556;2023-04-01T15:09:40;6.28;;;2.55;;
35188;SDS011;21762;54.480;18.556;2023-04-01T15:12:17;8.50;;;3.40;;
35188;SDS011;21762;54.480;18.556;2023-04-01T15:17:48;8.82;;;3.30;;
35188;SDS011;21762;54.480;18.556;2023-04-01T15:20:29;10.05;;;3.10;;
35188;SDS011;21762;54.480;18.556;2023-04-01T15:23:17;8.13;;;3.38;;
35188;SDS011;21762;54.480;18.556;2023-04-01T15:28:53;7.63;;;2.88;;
35188;SDS011;21762;54.480;18.556;2023-04-01T15:31:31;7.15;;;2.83;;
35188;SDS011;21762;54.480;18.556;2023-04-01T15:34:14;5.85;;;2.15;;
35188;SDS011;21762;54.480;18.556;2023-04-01T15:36:51;8.65;;;3.53;;
35188;SDS011;21762;54.480;18.556;2023-04-01T15:39:23;5.13;;;3.38;;
35188;SDS011;21762;54.480;18.556;2023-04-01T15:42:04;5.35;;;2.10;;
35188;SDS011;21762;54.480;18.556;2023-04-01T15:44:43;4.97;;;2.75;;
35188;SDS011;21762;54.480;18.556;2023-04-01T15:47:28;6.43;;;3.20;;
35188;SDS011;21762;54.480;18.556;2023-04-01T15:50:05;7.75;;;2.60;;
35188;SDS011;21762;54.480;18.556;2023-04-01T15:53:03;7.07;;;2.80;;
35188;SDS011;21762;54.480;18.556;2023-04-01T15:55:41;5.40;;;2.88;;
35188;SDS011;21762;54.480;18.556;2023-04-01T15:58:26;6.25;;;3.50;;
35188;SDS011;21762;54.480;18.556;2023-04-01T16:01:04;7.50;;;2.80;;
35188;SDS011;21762;54.480;18.556;2023-04-01T16:03:45;4.57;;;3.45;;
35188;SDS011;21762;54.480;18.556;2023-04-01T16:06:26;8.45;;;4.05;;
35188;SDS011;21762;54.480;18.556;2023-04-01T16:09:06;10.13;;;3.00;;
35188;SDS011;21762;54.480;18.556;2023-04-01T16:11:40;8.68;;;3.20;;
35188;SDS011;21762;54.480;18.556;2023-04-01T16:14:18;10.25;;;3.72;;
35188;SDS011;21762;54.480;18.556;2023-04-01T16:16:58;7.05;;;3.25;;
35188;SDS011;21762;54.480;18.556;2023-04-01T16:19:37;5.75;;;3.40;;
35188;SDS011;21762;54.480;18.556;2023-04-01T16:22:12;5.07;;;2.80;;
35188;SDS011;21762;54.480;18.556;2023-04-01T16:24:43;4.07;;;1.58;;
35188;SDS011;21762;54.480;18.556;2023-04-01T16:27:15;10.80;;;3.90;;
35188;SDS011;21762;54.480;18.556;2023-04-01T16:29:48;9.75;;;3.20;;
35188;SDS011;21762;54.480;18.556;2023-04-01T16:32:26;8.07;;;4.45;;
35188;SDS011;21762;54.480;18.556;2023-04-01T16:37:52;4.88;;;2.83;;
35188;SDS011;21762;54.480;18.556;2023-04-01T16:40:24;7.73;;;2.90;;
35188;SDS011;21762;54.480;18.556;2023-04-01T16:43:05;8.07;;;2.88;;
35188;SDS011;21762;54.480;18.556;2023-04-01T16:45:40;2.97;;;2.00;;
35188;SDS011;21762;54.480;18.556;2023-04-01T16:48:12;8.65;;;2.97;;
35188;SDS011;21762;54.480;18.556;2023-04-01T16:50:44;8.07;;;3.10;;
35188;SDS011;21762;54.480;18.556;2023-04-01T16:53:17;6.18;;;2.97;;
35188;SDS011;21762;54.480;18.556;2023-04-01T16:55:49;2.58;;;2.08;;
35188;SDS011;21762;54.480;18.556;2023-04-01T16:58:21;8.55;;;3.03;;
35188;SDS011;21762;54.480;18.556;2023-04-01T17:00:55;5.32;;;2.55;;
35188;SDS011;21762;54.480;18.556;2023-04-01T17:03:29;9.07;;;3.42;;
35188;SDS011;21762;54.480;18.556;2023-04-01T17:06:03;6.15;;;2.67;;
35188;SDS011;21762;54.480;18.556;2023-04-01T17:08:43;5.93;;;2.22;;
35188;SDS011;21762;54.480;18.556;2023-04-01T17:11:24;3.65;;;2.00;;